• Join FlightAware (Why Join?)
  • Login
  • US Flag 
11:09AM EDT


 

Airport Tracker/Info


-or-


 

Live Flight TrackerFlight Track Log ✈ N868DB ✈ 02-May-2014 ✈ KFTW - KAPA

Flight Track Log - Related Links

Times and Time Zones

All times are in EDT time to prevent confusion due to time zone crossing. See the N868DB flight status page for this flight to view local times or setup timezone preferences in your user account.

Time Position Orientation Groundspeed Altitude Reporting Facility
EDT Latitude Longitude Course Direction KTS MPH feet Rate Location/Type
01:48PM 32.8333 -97.3667 355° North 158 182 1,300  Level Dallas / Fort Worth TRACON
01:49PM 32.8969 -97.3733 355° North 251 289 4,200 3,240 Climbing Fort Worth Center
01:50PM 32.9636 -97.4294 325° Northwest 278 320 8,300 4,140 Climbing Fort Worth Center
01:51PM 33.0197 -97.5022 313° West 298 343 12,800 3,600 Climbing Fort Worth Center
01:52PM 33.0531 -97.6150 289° West 341 392 15,800 2,700 Climbing Fort Worth Center
01:53PM 33.0908 -97.7317 291° West 377 434 18,500 2,940 Climbing Fort Worth Center
01:54PM 33.1333 -97.8608 291° West 387 445 21,900 2,580 Climbing Fort Worth Center
01:55PM 33.1661 -97.9664 290° West 397 457 23,900 2,340 Climbing Fort Worth Center
01:56PM 33.2139 -98.1211 290° West 409 471 26,800 2,280 Climbing Fort Worth Center
01:57PM 33.2558 -98.2542 291° West 423 487 28,700 1,800 Climbing Fort Worth Center
01:58PM 33.3033 -98.4008 291° West 447 514 30,600 1,440 Climbing Fort Worth Center
01:59PM 33.3397 -98.5222 290° West 447 514 31,700 1,200 Climbing Fort Worth Center
02:00PM 33.3931 -98.6964 290° West 462 532 33,100 1,380 Climbing Fort Worth Center
02:01PM 33.4389 -98.8442 290° West 471 542 34,600 1,500 Climbing Fort Worth Center
02:02PM 33.4825 -98.9883 290° West 469 540 36,300 1,680 Climbing Fort Worth Center
02:03PM 33.5247 -99.1275 290° West 452 520 38,100 1,680 Climbing Fort Worth Center
02:04PM 33.5683 -99.2619 291° West 442 509 39,800 1,440 Climbing Fort Worth Center
02:05PM 33.6819 -99.3642 323° Northwest 432 497 41,100 960 Climbing Fort Worth Center
02:06PM 33.7808 -99.4436 326° Northwest 430 495 41,800 540 Climbing Fort Worth Center
02:07PM 33.8817 -99.5256 326° Northwest 435 501 42,300 360 Climbing Fort Worth Center
02:08PM 33.9833 -99.6086 326° Northwest 440 506 42,600 240 Climbing Fort Worth Center
02:10PM 34.0856 -99.6931 326° Northwest 445 512 42,900 180 Climbing Fort Worth Center
02:11PM 34.1889 -99.7775 326° Northwest 446 513 43,000  Climbing Fort Worth Center
02:12PM 34.3100 -99.8789 325° Northwest 445 512 43,000  Level Fort Worth Center
02:13PM 34.4000 -99.9539 325° Northwest 438 504 43,000  Level Fort Worth Center
02:14PM 34.5206 -100.0503 327° Northwest 434 499 43,000  Level Fort Worth Center
02:15PM 34.6189 -100.1325 325° Northwest 434 499 43,000  Level Fort Worth Center
02:16PM 34.7167 -100.2192 324° Northwest 432 497 43,000  Level Fort Worth Center
02:17PM 34.8144 -100.3000 326° Northwest 430 495 43,000  Level Fort Worth Center
02:18PM 34.9125 -100.3819 326° Northwest 427 491 43,000  Level Fort Worth Center
02:19PM 35.0100 -100.4653 325° Northwest 426 490 43,000  Level Fort Worth Center
02:20PM 35.1436 -100.5781 325° Northwest 427 491 43,000  Level Albuquerque Center
02:21PM 35.2467 -100.6667 325° Northwest 430 495 43,000  Level Albuquerque Center
02:22PM 35.3408 -100.7464 325° Northwest 431 496 43,000  Level Albuquerque Center
02:23PM 35.4394 -100.8314 325° Northwest 431 496 43,000  Level Albuquerque Center
02:24PM 35.5583 -100.9325 325° Northwest 432 497 43,000  Level Albuquerque Center
02:25PM 35.6567 -101.0189 324° Northwest 434 499 43,000  Level Albuquerque Center
02:26PM 35.7542 -101.1022 325° Northwest 434 499 43,000  Level Albuquerque Center
02:27PM 35.8519 -101.1878 325° Northwest 434 499 43,000  Level Albuquerque Center
02:28PM 35.9497 -101.2714 325° Northwest 433 498 43,000  Level Albuquerque Center
02:29PM 36.0669 -101.3750 324° Northwest 433 498 43,000  Level Albuquerque Center
02:30PM 36.1639 -101.4614 324° Northwest 433 498 43,000  Level Albuquerque Center
02:31PM 36.2606 -101.5456 325° Northwest 432 497 43,000  Level Albuquerque Center
02:33PM 36.3569 -101.6300 325° Northwest 429 494 43,000  Level Albuquerque Center
02:34PM 36.4539 -101.7175 324° Northwest 429 494 43,000  Level Albuquerque Center
02:35PM 36.5503 -101.8003 325° Northwest 428 493 43,000  Level Albuquerque Center
02:35PM 36.6258 -101.8675 324° Northwest 428 493 43,000  Level Kansas City Center
02:36PM 36.7161 -101.9483 324° Northwest 424 488 43,000  Level Kansas City Center
02:37PM 36.8225 -102.0442 324° Northwest 423 487 43,000  Level Kansas City Center
02:38PM 36.9125 -102.1244 325° Northwest 419 482 43,000  Level Kansas City Center
02:39PM 37.0175 -102.2192 324° Northwest 418 481 43,000  Level Kansas City Center
02:40PM 37.1072 -102.2989 325° Northwest 416 479 43,000  Level Kansas City Center
02:41PM 37.1947 -102.3806 323° Northwest 415 478 43,000  Level Kansas City Center
02:43PM 37.2986 -102.4733 325° Northwest 412 474 43,000  Level Kansas City Center
02:44PM 37.3867 -102.5542 324° Northwest 412 474 43,000  Level Kansas City Center
02:45PM 37.4906 -102.6494 324° Northwest 412 474 43,000  Level Kansas City Center
02:45PM 37.5514 -102.7028 325° Northwest 409 471 43,000 -120 Level Denver Center
02:46PM 37.6528 -102.7969 324° Northwest 409 471 42,800 -780 Descending Denver Center
02:47PM 37.7400 -102.8772 324° Northwest 408 470 41,400 -1,560 Descending Denver Center
02:48PM 37.8289 -102.9581 324° Northwest 408 470 39,600 -1,860 Descending Denver Center
02:49PM 37.9306 -103.0522 324° Northwest 408 470 37,600 -1,800 Descending Denver Center
02:50PM 38.0153 -103.1308 324° Northwest 400 460 35,900 -1,620 Descending Denver Center
02:51PM 38.1000 -103.2122 323° Northwest 384 442 34,300 -1,680 Descending Denver Center
02:52PM 38.1867 -103.2931 324° Northwest 385 443 32,500 -1,920 Descending Denver Center
02:53PM 38.2958 -103.3947 324° Northwest 403 464 30,400 -1,980 Descending Denver Center
02:54PM 38.3894 -103.4819 324° Northwest 413 475 28,500 -1,800 Descending Denver Center
02:56PM 38.4831 -103.5706 323° Northwest 418 481 26,700 -1,800 Descending Denver Center
02:57PM 38.5764 -103.6597 323° Northwest 418 481 24,800 -1,320 Descending Denver Center
02:58PM 38.6689 -103.7481 323° Northwest 418 481 24,000 -780 Descending Denver Center
02:59PM 38.7642 -103.8378 324° Northwest 420 483 23,300 -960 Descending Denver Center
03:00PM 38.8694 -103.9397 323° Northwest 402 463 22,100 -1,020 Descending Denver Center
03:01PM 38.9522 -104.0200 323° Northwest 386 444 21,300 -1,260 Descending Denver Center
03:02PM 39.0322 -104.0986 323° Northwest 373 429 19,500 -1,800 Descending Denver Center
03:03PM 39.0567 -104.2242 284° West 369 425 17,600 -1,800 Descending Denver Center
03:04PM 39.0850 -104.3597 285° West 345 397 15,500 -1,380 Descending Denver Center
03:05PM 39.1078 -104.4625 286° West 317 365 14,500 -840 Descending Denver Center
03:06PM 39.1350 -104.5811 287° West 291 335 13,800 -780 Descending Denver Center
03:07PM 39.1803 -104.6650 305° West 302 348 13,000 -960 Descending Denver Center
03:08PM 39.2392 -104.7550 310° West 306 352 11,900 -1,080 Descending Denver Center
03:09PM 39.2886 -104.8042 322° Northwest 296 341 10,800 -1,500 Descending Denver Center
03:10PM 39.3775 -104.8411 342° North 260 299 8,900 -1,380 Descending Denver Center
03:11PM 39.4447 -104.8447 358° North 244 281 8,000 -900 Descending Denver Center
03:12PM 39.4969 -104.8467 358° North 189 217 7,100 -900 Descending Denver Center
03:13PM 39.5414 -104.8497 357° North 154 177 6,200 -660 Descending Denver Center
03:14PM 39.5717 -104.8517 357° North 115 132 5,800 -420 Descending Denver Center
03:16PM 39.5701 -104.8493 123° Southeast  Level Estimated
03:23PM 39.5701 -104.8493 123° Southeast  Level Estimated
03:24PM 39.5701 -104.8493 248° West  Level Estimated